createdAt,value
2018-04-20T00:02:05.698Z,74.23
2018-04-20T00:04:33.181Z,74.74
2018-04-20T00:07:00.940Z,75.29
2018-04-20T00:09:28.426Z,75.97
2018-04-20T00:11:55.913Z,75.93
2018-04-20T00:14:23.653Z,75.99
2018-04-20T00:16:51.145Z,76.21
2018-04-20T00:19:18.656Z,75.28
2018-04-20T00:21:46.465Z,75.22
2018-04-20T00:24:13.953Z,74.73
2018-04-20T00:26:41.536Z,76.20
2018-04-20T00:29:09.061Z,75.60
2018-04-20T00:31:36.545Z,75.96
2018-04-20T00:34:04.024Z,75.08
2018-04-20T00:36:31.546Z,74.65
2018-04-20T00:38:59.028Z,75.10
2018-04-20T00:41:26.537Z,75.34
2018-04-20T00:43:54.044Z,76.59
2018-04-20T00:46:21.529Z,76.03
2018-04-20T00:48:49.029Z,76.88
2018-04-20T00:51:16.533Z,76.98
2018-04-20T00:53:55.633Z,77.37
2018-04-20T00:56:23.132Z,77.11
2018-04-20T00:58:50.619Z,77.12
2018-04-20T01:01:18.384Z,77.39
2018-04-20T01:03:45.893Z,77.30
2018-04-20T01:06:13.401Z,78.11
2018-04-20T01:08:40.901Z,77.94
2018-04-20T01:11:08.385Z,77.10
2018-04-20T01:13:36.033Z,76.44
2018-04-20T01:16:03.566Z,76.20
2018-04-20T01:18:31.017Z,76.74
2018-04-20T01:20:58.553Z,77.77
2018-04-20T01:23:26.032Z,78.80
2018-04-20T01:25:53.775Z,78.20
2018-04-20T01:28:21.220Z,78.69
2018-04-20T01:30:48.705Z,77.73
2018-04-20T01:33:16.222Z,78.15
2018-04-20T01:35:43.713Z,77.85
2018-04-20T01:38:11.345Z,77.89
2018-04-20T01:40:38.871Z,77.93
2018-04-20T01:43:06.345Z,78.27
2018-04-20T01:45:33.886Z,79.06
2018-04-20T01:48:01.365Z,78.41
2018-04-20T01:50:29.107Z,79.03
2018-04-20T01:52:56.589Z,78.50
2018-04-20T01:55:24.064Z,79.09
2018-04-20T01:57:51.579Z,79.46
2018-04-20T02:00:19.066Z,78.21
2018-04-20T02:02:46.780Z,79.11
2018-04-20T02:05:14.260Z,79.17
2018-04-20T02:07:41.741Z,78.64
2018-04-20T02:10:09.297Z,79.12
2018-04-20T02:12:36.805Z,78.47
2018-04-20T02:15:04.322Z,78.43
2018-04-20T02:17:31.821Z,79.53
2018-04-20T02:19:59.305Z,79.95
2018-04-20T02:22:26.814Z,79.40
2018-04-20T02:24:54.309Z,78.91
2018-04-20T02:27:21.960Z,78.86
2018-04-20T02:29:49.480Z,79.33
2018-04-20T02:32:16.955Z,80.30
2018-04-20T02:34:44.472Z,80.33
2018-04-20T02:37:11.953Z,80.26
2018-04-20T02:39:39.606Z,80.61
2018-04-20T02:42:07.092Z,79.08
2018-04-20T02:44:34.575Z,80.07
2018-04-20T02:47:02.075Z,80.54
2018-04-20T02:49:29.558Z,79.82
2018-04-20T02:51:57.177Z,79.97
2018-04-20T02:54:24.653Z,79.57
2018-04-20T02:56:52.129Z,80.23
2018-04-20T02:59:19.625Z,80.28
2018-04-20T03:01:47.097Z,80.06
2018-04-20T03:04:14.933Z,80.20
2018-04-20T03:06:42.405Z,80.45
2018-04-20T03:09:09.886Z,80.88
2018-04-20T03:11:37.393Z,80.27
2018-04-20T03:14:04.883Z,79.86
2018-04-20T03:16:32.592Z,80.45
2018-04-20T03:19:00.070Z,80.41
2018-04-20T03:21:27.570Z,80.76
2018-04-20T03:23:55.072Z,80.61
2018-04-20T03:26:22.562Z,80.74
2018-04-20T03:28:50.269Z,81.52
2018-04-20T03:31:17.745Z,81.63
2018-04-20T03:33:45.217Z,81.87
2018-04-20T03:36:12.728Z,81.68
2018-04-20T03:38:40.204Z,81.05
2018-04-20T03:41:07.722Z,81.23
2018-04-20T03:43:35.201Z,82.01
2018-04-20T03:46:02.692Z,82.82
2018-04-20T03:48:30.193Z,81.80
2018-04-20T03:50:57.674Z,81.53
2018-04-20T03:53:25.369Z,81.36
2018-04-20T03:55:52.842Z,81.72
2018-04-20T03:58:20.352Z,81.79
2018-04-20T04:00:47.857Z,82.52
2018-04-20T04:03:15.337Z,81.82
2018-04-20T04:05:42.857Z,82.10
2018-04-20T04:08:10.329Z,81.91
2018-04-20T04:10:37.805Z,81.98
2018-04-20T04:13:05.314Z,81.50
2018-04-20T04:15:32.812Z,81.37
2018-04-20T04:18:12.232Z,81.53
2018-04-20T04:20:43.332Z,82.21
2018-04-20T04:23:22.662Z,82.74
2018-04-20T04:26:01.974Z,82.13
2018-04-20T04:28:29.484Z,82.58
2018-04-20T04:30:56.959Z,81.88
2018-04-20T04:33:24.476Z,82.11
2018-04-20T04:35:52.851Z,81.83
2018-04-20T04:38:20.363Z,82.12
2018-04-20T04:40:47.842Z,82.00
2018-04-20T04:43:15.329Z,81.84
2018-04-20T04:45:42.832Z,81.94
2018-04-20T04:48:10.324Z,81.38
2018-04-20T04:50:38.013Z,81.87
2018-04-20T04:53:05.501Z,81.60
2018-04-20T04:55:32.994Z,81.44
2018-04-20T04:58:00.496Z,82.32
2018-04-20T05:00:27.988Z,81.85
2018-04-20T05:02:55.509Z,81.73
2018-04-20T05:05:22.997Z,81.94
2018-04-20T05:07:50.477Z,83.41
2018-04-20T05:10:17.986Z,82.37
2018-04-20T05:12:45.485Z,80.42
2018-04-20T05:15:13.145Z,78.22
2018-04-20T05:17:40.630Z,77.05
2018-04-20T05:20:08.113Z,75.50
2018-04-20T05:22:35.616Z,74.87
2018-04-20T05:25:03.114Z,75.10
2018-04-20T05:27:30.881Z,73.02
2018-04-20T05:29:58.401Z,72.27
2018-04-20T05:32:25.887Z,71.65
2018-04-20T05:34:53.410Z,70.73
2018-04-20T05:37:20.893Z,69.84
2018-04-20T05:39:48.632Z,69.63
2018-04-20T05:42:16.133Z,69.25
2018-04-20T05:44:43.615Z,68.51
2018-04-20T05:47:11.144Z,68.90
2018-04-20T05:49:38.644Z,68.06
2018-04-20T05:52:06.249Z,68.03
2018-04-20T05:54:33.757Z,67.19
2018-04-20T05:57:01.254Z,67.14
2018-04-20T05:59:28.758Z,67.84
2018-04-20T06:01:59.265Z,67.75
2018-04-20T06:04:26.845Z,69.37
2018-04-20T06:06:54.329Z,68.33
2018-04-20T06:09:21.831Z,69.31
2018-04-20T06:11:49.329Z,69.27
2018-04-20T06:14:16.841Z,69.62
2018-04-20T06:16:44.777Z,69.82
2018-04-20T06:19:12.270Z,70.20
2018-04-20T06:21:39.760Z,70.08
2018-04-20T06:24:07.278Z,70.62
2018-04-20T06:26:34.774Z,70.97
2018-04-20T06:29:02.442Z,71.57
2018-04-20T06:31:29.949Z,70.64
2018-04-20T06:33:57.449Z,70.17
2018-04-20T06:36:24.957Z,70.73
2018-04-20T06:38:52.436Z,70.95
2018-04-20T06:41:19.957Z,70.93
2018-04-20T06:43:47.433Z,69.58
2018-04-20T06:46:14.909Z,66.86
2018-04-20T06:48:42.413Z,67.39
2018-04-20T06:51:09.944Z,69.58
2018-04-20T06:53:37.649Z,68.30
2018-04-20T06:56:05.133Z,69.19
2018-04-20T06:58:32.624Z,68.72
2018-04-20T07:01:00.156Z,68.25
2018-04-20T07:03:27.730Z,67.38
2018-04-20T07:05:55.224Z,65.47
2018-04-20T07:08:22.709Z,66.17
2018-04-20T07:10:50.197Z,66.16
2018-04-20T07:13:17.744Z,66.98
2018-04-20T07:15:45.236Z,65.86
2018-04-20T07:18:12.913Z,65.07
2018-04-20T07:20:40.397Z,65.68
2018-04-20T07:23:07.894Z,65.76
2018-04-20T07:25:35.404Z,66.56
2018-04-20T07:28:02.889Z,64.94
2018-04-20T07:30:30.416Z,63.30
2018-04-20T07:32:57.921Z,63.18
2018-04-20T07:35:25.407Z,64.37
2018-04-20T07:37:52.917Z,64.68
2018-04-20T07:40:20.405Z,62.17
2018-04-20T07:42:48.065Z,63.19
2018-04-20T07:45:15.549Z,61.90
2018-04-20T07:47:43.045Z,62.75
2018-04-20T07:50:10.555Z,62.29
2018-04-20T07:52:38.044Z,61.84
2018-04-20T07:55:05.561Z,59.05
2018-04-20T07:57:33.059Z,58.46
2018-04-20T08:00:00.561Z,59.07
2018-04-20T08:02:28.068Z,57.80
2018-04-20T08:04:55.549Z,57.75
2018-04-20T08:07:23.268Z,57.81
2018-04-20T08:09:50.771Z,56.42
2018-04-20T08:12:18.269Z,56.27
2018-04-20T08:14:45.792Z,54.84
2018-04-20T08:17:13.285Z,53.95
2018-04-20T08:19:40.937Z,52.75
2018-04-20T08:22:08.425Z,53.44
2018-04-20T08:24:35.912Z,51.46
2018-04-20T08:27:03.434Z,51.60
2018-04-20T08:29:30.917Z,52.28
2018-04-20T08:31:58.468Z,51.97
2018-04-20T08:34:25.957Z,52.24
2018-04-20T08:36:53.445Z,52.01
2018-04-20T08:39:20.960Z,51.73
2018-04-20T08:41:48.448Z,51.94
2018-04-20T08:47:06.691Z,50.54
2018-04-20T08:49:34.249Z,51.30
2018-04-20T08:52:01.992Z,51.03
2018-04-20T08:54:29.489Z,51.17
2018-04-20T08:56:56.978Z,50.34
2018-04-20T08:59:24.481Z,50.09
2018-04-20T09:01:51.975Z,49.05
2018-04-20T09:04:19.511Z,49.08
2018-04-20T09:06:46.989Z,49.32
2018-04-20T09:09:14.498Z,49.07
2018-04-20T09:11:42.033Z,49.38
2018-04-20T09:14:09.509Z,50.30
2018-04-20T09:16:37.049Z,49.32
2018-04-20T09:19:04.561Z,49.35
2018-04-20T09:21:32.037Z,49.33
2018-04-20T09:23:59.540Z,49.97
2018-04-20T09:26:27.030Z,49.22
2018-04-20T09:28:54.546Z,47.70
2018-04-20T09:31:22.029Z,48.20
2018-04-20T09:33:49.522Z,48.62
2018-04-20T09:36:17.036Z,49.42
2018-04-20T09:38:44.524Z,48.57
2018-04-20T09:41:12.230Z,48.17
2018-04-20T09:43:39.724Z,47.98
2018-04-20T09:46:07.214Z,48.31
2018-04-20T09:48:34.726Z,48.64
2018-04-20T09:51:02.237Z,48.25
2018-04-20T09:53:29.891Z,47.41
2018-04-20T09:55:57.385Z,47.27
2018-04-20T09:58:24.914Z,45.83
2018-04-20T10:00:52.450Z,44.86
2018-04-20T10:03:19.940Z,42.79
2018-04-20T10:05:47.477Z,42.22
2018-04-20T10:08:14.965Z,41.25
2018-04-20T10:10:42.518Z,40.47
2018-04-20T10:13:10.026Z,40.75
2018-04-20T10:15:37.551Z,39.53
2018-04-20T10:18:05.097Z,39.40
2018-04-20T10:20:32.597Z,38.63
2018-04-20T10:23:00.141Z,37.16
2018-04-20T10:25:27.637Z,36.57
2018-04-20T10:27:55.120Z,37.99
2018-04-20T10:30:22.638Z,35.75
2018-04-20T10:32:50.126Z,36.52
2018-04-20T10:35:17.890Z,36.22
2018-04-20T10:37:45.365Z,37.43
2018-04-20T10:40:12.857Z,38.32
2018-04-20T10:42:40.408Z,38.65
2018-04-20T10:45:07.885Z,40.43
2018-04-20T10:47:35.424Z,40.46
2018-04-20T10:50:02.918Z,40.43
2018-04-20T10:52:30.406Z,39.61
2018-04-20T10:54:57.917Z,40.33
2018-04-20T10:57:25.425Z,39.70
2018-04-20T10:59:53.078Z,39.59
2018-04-20T11:02:20.552Z,39.42
2018-04-20T11:04:48.033Z,39.54
2018-04-20T11:07:15.541Z,39.05
2018-04-20T11:09:43.042Z,39.42
2018-04-20T11:12:10.708Z,39.64
2018-04-20T11:14:38.193Z,39.08
2018-04-20T11:17:05.690Z,38.96
2018-04-20T11:19:33.188Z,39.10
2018-04-20T11:22:00.674Z,39.31
2018-04-20T11:24:28.389Z,39.59
2018-04-20T11:26:55.873Z,39.65
2018-04-20T11:29:23.373Z,39.60
2018-04-20T11:31:50.876Z,39.50
2018-04-20T11:34:18.361Z,39.44
2018-04-20T11:36:45.869Z,39.39
2018-04-20T11:39:13.350Z,39.52
2018-04-20T11:41:40.857Z,40.23
2018-04-20T11:44:08.337Z,39.61
2018-04-20T11:46:35.877Z,39.16
2018-04-20T11:49:03.385Z,39.08
2018-04-20T11:51:30.870Z,38.99
2018-04-20T11:53:58.429Z,39.34
2018-04-20T11:56:25.882Z,39.28
2018-04-20T11:58:53.573Z,39.65
2018-04-20T12:01:21.053Z,37.88
2018-04-20T12:03:48.545Z,38.23
2018-04-20T12:06:16.064Z,37.54
2018-04-20T12:08:43.549Z,37.60
2018-04-20T12:11:11.057Z,37.71
2018-04-20T12:13:38.549Z,36.79
2018-04-20T12:16:06.061Z,37.28
2018-04-20T12:18:33.545Z,36.16
2018-04-20T12:21:01.049Z,36.81
2018-04-20T12:23:28.605Z,35.85
2018-04-20T12:25:56.084Z,35.42
2018-04-20T12:28:23.606Z,33.98
2018-04-20T12:30:51.105Z,34.19
2018-04-20T12:33:18.629Z,35.43
2018-04-20T12:35:46.114Z,35.68
2018-04-20T12:38:13.593Z,35.39
2018-04-20T12:40:41.101Z,35.56
2018-04-20T12:43:08.585Z,34.40
2018-04-20T12:45:36.127Z,34.19
2018-04-20T12:48:03.611Z,33.59
2018-04-20T12:50:31.253Z,34.17
2018-04-20T12:52:58.765Z,34.54
2018-04-20T12:55:26.256Z,34.06
2018-04-20T12:57:53.764Z,34.34
2018-04-20T13:00:21.256Z,35.54
2018-04-20T13:02:48.804Z,35.39
2018-04-20T13:05:16.297Z,34.23
2018-04-20T13:07:43.781Z,33.62
2018-04-20T13:10:11.289Z,33.97
2018-04-20T13:12:38.777Z,34.09
2018-04-20T13:15:06.289Z,34.34
2018-04-20T13:17:33.778Z,34.46
2018-04-20T13:20:01.522Z,33.58
2018-04-20T13:22:29.029Z,33.47
2018-04-20T13:24:56.529Z,35.10
2018-04-20T13:27:24.054Z,34.29
2018-04-20T13:29:51.793Z,32.23
2018-04-20T13:32:19.305Z,31.30
2018-04-20T13:34:46.793Z,33.22
2018-04-20T13:37:14.467Z,34.00
2018-04-20T13:39:41.953Z,34.29
2018-04-20T13:42:09.449Z,34.08
2018-04-20T13:44:36.968Z,33.38
2018-04-20T13:47:04.465Z,33.77
2018-04-20T13:49:32.005Z,35.05
2018-04-20T13:51:59.490Z,34.24
2018-04-20T13:54:27.034Z,34.36
2018-04-20T13:56:54.517Z,33.33
2018-04-20T13:59:21.997Z,34.53
2018-04-20T14:01:49.549Z,34.02
2018-04-20T14:04:17.198Z,33.46
2018-04-20T14:06:44.709Z,33.31
2018-04-20T14:09:12.193Z,32.94
2018-04-20T14:11:39.937Z,31.75
2018-04-20T14:14:07.424Z,31.09
2018-04-20T14:16:34.900Z,30.85
2018-04-20T14:19:02.401Z,29.36
2018-04-20T14:21:29.886Z,30.36
2018-04-20T14:23:57.424Z,30.38
2018-04-20T14:26:24.928Z,29.17
2018-04-20T14:28:52.439Z,30.15
2018-04-20T14:31:19.949Z,30.46
2018-04-20T14:33:47.465Z,29.51
2018-04-20T14:36:14.941Z,28.97
2018-04-20T14:38:42.417Z,29.79
2018-04-20T14:41:09.934Z,29.00
2018-04-20T14:43:37.438Z,29.09
2018-04-20T14:46:05.092Z,28.00
2018-04-20T14:48:32.573Z,28.69
2018-04-20T14:51:00.099Z,29.52
2018-04-20T14:53:27.639Z,27.79
2018-04-20T14:55:55.121Z,26.48
2018-04-20T14:58:22.632Z,28.50
2018-04-20T15:00:50.121Z,27.02
2018-04-20T15:03:17.637Z,26.99
2018-04-20T15:05:45.129Z,27.90
2018-04-20T15:08:12.669Z,26.84
2018-04-20T15:10:40.149Z,27.44
2018-04-20T15:13:08.113Z,27.34
2018-04-20T15:15:35.602Z,27.94
2018-04-20T15:18:03.085Z,27.43
2018-04-20T15:20:30.609Z,27.66
2018-04-20T15:22:58.084Z,27.41
2018-04-20T15:25:25.749Z,27.64
2018-04-20T15:27:53.233Z,27.23
2018-04-20T15:30:20.719Z,26.62
2018-04-20T15:32:48.243Z,27.50
2018-04-20T15:35:15.725Z,27.36
2018-04-20T15:37:43.418Z,27.72
2018-04-20T15:40:10.921Z,27.69
2018-04-20T15:42:38.401Z,27.94
2018-04-20T15:45:05.913Z,28.12
2018-04-20T15:47:33.409Z,28.27
2018-04-20T15:50:00.976Z,28.35
2018-04-20T15:52:28.457Z,28.76
2018-04-20T15:54:56.103Z,29.06
2018-04-20T15:57:23.581Z,29.50
2018-04-20T15:59:51.081Z,29.62
2018-04-20T16:02:18.585Z,29.25
2018-04-20T16:04:46.076Z,30.19
2018-04-20T16:07:13.595Z,30.52
2018-04-20T16:09:41.080Z,29.32
2018-04-20T16:12:08.853Z,29.29
2018-04-20T16:14:36.334Z,28.55
2018-04-20T16:17:03.821Z,29.58
2018-04-20T16:19:31.356Z,30.02
2018-04-20T16:21:58.836Z,29.25
2018-04-20T16:24:26.376Z,29.39
2018-04-20T16:26:53.867Z,29.24
2018-04-20T16:29:21.349Z,29.40
2018-04-20T16:31:48.889Z,29.10
2018-04-20T16:34:16.392Z,29.55
2018-04-20T16:36:44.100Z,30.43
2018-04-20T16:39:11.660Z,30.75
2018-04-20T16:41:39.112Z,30.38
2018-04-20T16:44:06.617Z,29.55
2018-04-20T16:46:34.097Z,30.44
2018-04-20T16:49:01.613Z,30.31
2018-04-20T16:51:29.098Z,31.51
2018-04-20T16:53:56.638Z,30.45
2018-04-20T16:56:24.130Z,29.98
2018-04-20T16:58:51.621Z,31.03
2018-04-20T17:01:19.212Z,30.78
2018-04-20T17:03:46.661Z,30.63
2018-04-20T17:06:14.170Z,30.11
2018-04-20T17:08:41.653Z,30.91
2018-04-20T17:11:09.169Z,30.78
2018-04-20T17:13:36.666Z,31.75
2018-04-20T17:16:04.172Z,31.86
2018-04-20T17:18:31.672Z,33.18
2018-04-20T17:20:59.152Z,33.34
2018-04-20T17:23:26.656Z,33.21
2018-04-20T17:25:54.366Z,33.26
2018-04-20T17:28:21.865Z,34.79
2018-04-20T17:30:49.346Z,35.71
2018-04-20T17:33:17.259Z,36.74
2018-04-20T17:35:44.782Z,38.65
2018-04-20T17:38:12.269Z,38.81
2018-04-20T17:40:39.772Z,38.87
2018-04-20T17:43:07.259Z,40.26
2018-04-20T17:45:34.794Z,41.18
2018-04-20T17:48:02.276Z,40.84
2018-04-20T17:50:29.808Z,41.92
2018-04-20T17:52:57.293Z,42.54
2018-04-20T17:55:24.785Z,43.76
2018-04-20T17:57:52.292Z,45.08
2018-04-20T18:00:19.775Z,46.96
2018-04-20T18:02:47.288Z,47.88
2018-04-20T18:05:14.802Z,49.02
2018-04-20T18:07:42.537Z,49.29
2018-04-20T18:10:10.049Z,49.96
2018-04-20T18:12:37.529Z,50.65
2018-04-20T18:15:05.036Z,51.09
2018-04-20T18:17:32.543Z,51.45
2018-04-20T18:20:00.052Z,51.22
2018-04-20T18:22:27.529Z,51.74
2018-04-20T18:24:55.366Z,51.34
2018-04-20T18:27:22.849Z,51.19
2018-04-20T18:29:50.329Z,51.75
2018-04-20T18:32:17.837Z,52.98
2018-04-20T18:34:45.316Z,54.09
2018-04-20T18:37:12.821Z,54.46
2018-04-20T18:39:40.313Z,54.20
2018-04-20T18:42:08.030Z,53.79
2018-04-20T18:44:35.521Z,54.16
2018-04-20T18:47:03.004Z,54.37
2018-04-20T18:49:30.505Z,54.52
2018-04-20T18:51:58.312Z,55.23
2018-04-20T18:54:25.875Z,57.42
2018-04-20T18:56:53.361Z,58.29
2018-04-20T18:59:20.837Z,59.26
2018-04-20T19:01:48.442Z,59.17
2018-04-20T19:04:15.926Z,60.28
2018-04-20T19:06:43.448Z,59.45
2018-04-20T19:09:10.958Z,60.27
2018-04-20T19:11:38.703Z,60.76
2018-04-20T19:14:06.209Z,61.45
2018-04-20T19:16:33.715Z,61.63
2018-04-20T19:19:01.225Z,61.71
2018-04-20T19:21:28.713Z,61.79
2018-04-20T19:23:56.629Z,62.15
2018-04-20T19:26:24.113Z,62.45
2018-04-20T19:28:51.593Z,63.22
2018-04-20T19:31:19.105Z,63.41
2018-04-20T19:33:46.610Z,62.15
2018-04-20T19:36:14.149Z,63.30
2018-04-20T19:38:41.690Z,63.55
2018-04-20T19:41:09.209Z,64.88
2018-04-20T19:43:36.745Z,64.13
2018-04-20T19:46:04.257Z,63.77
2018-04-20T19:48:31.733Z,64.46
2018-04-20T19:50:59.277Z,64.70
2018-04-20T19:53:26.811Z,65.93
2018-04-20T19:55:54.305Z,65.84
2018-04-20T19:58:21.809Z,65.33
2018-04-20T20:00:49.293Z,65.60
2018-04-20T20:03:17.119Z,64.12
2018-04-20T20:05:44.605Z,65.43
2018-04-20T20:08:12.107Z,65.05
2018-04-20T20:10:39.610Z,65.97
2018-04-20T20:13:07.102Z,66.80
2018-04-20T20:15:34.752Z,67.12
2018-04-20T20:18:02.285Z,68.02
2018-04-20T20:20:29.788Z,67.55
2018-04-20T20:22:57.304Z,67.61
2018-04-20T20:25:24.797Z,67.43
2018-04-20T20:27:52.493Z,67.44
2018-04-20T20:30:19.977Z,68.64
2018-04-20T20:32:47.458Z,68.01
2018-04-20T20:35:14.995Z,68.06
2018-04-20T20:37:42.481Z,68.08
2018-04-20T20:40:10.273Z,66.92
2018-04-20T20:42:37.761Z,68.05
2018-04-20T20:45:05.246Z,70.26
2018-04-20T20:47:32.765Z,69.36
2018-04-20T20:50:00.261Z,69.62
2018-04-20T20:52:27.913Z,69.38
2018-04-20T20:54:55.402Z,69.50
2018-04-20T20:57:22.955Z,69.93
2018-04-20T20:59:50.476Z,70.27
2018-04-20T21:02:17.968Z,70.40
2018-04-20T21:04:45.665Z,70.86
2018-04-20T21:07:13.179Z,70.76
2018-04-20T21:09:40.675Z,70.66
2018-04-20T21:12:08.176Z,71.21
2018-04-20T21:14:35.673Z,70.25
2018-04-20T21:17:03.188Z,70.64
2018-04-20T21:19:30.702Z,70.73
2018-04-20T21:21:58.185Z,70.44
2018-04-20T21:24:25.772Z,70.39
2018-04-20T21:26:53.305Z,70.68
2018-04-20T21:29:20.849Z,71.68
2018-04-20T21:31:48.366Z,70.85
2018-04-20T21:34:15.852Z,71.78
2018-04-20T21:36:43.392Z,71.54
2018-04-20T21:39:10.873Z,72.08
2018-04-20T21:41:38.353Z,72.01
2018-04-20T21:44:05.862Z,71.78
2018-04-20T21:46:33.342Z,72.39
2018-04-20T21:49:00.818Z,72.14
2018-04-20T21:51:28.357Z,71.99
2018-04-20T21:53:55.841Z,72.49
2018-04-20T21:56:23.321Z,73.09
2018-04-20T21:58:50.862Z,72.78
2018-04-20T22:01:18.366Z,73.64
2018-04-20T22:03:45.857Z,73.34
2018-04-20T22:06:13.377Z,74.12
2018-04-20T22:08:40.881Z,74.39
2018-04-20T22:11:08.357Z,74.07
2018-04-20T22:13:36.049Z,74.59
2018-04-20T22:16:03.543Z,74.26
2018-04-20T22:18:31.076Z,73.92
2018-04-20T22:20:58.757Z,73.72
2018-04-20T22:23:26.233Z,73.76
2018-04-20T22:25:53.721Z,73.71
2018-04-20T22:28:21.369Z,73.83
2018-04-20T22:30:48.849Z,74.13
2018-04-20T22:33:16.325Z,74.13
2018-04-20T22:35:43.965Z,73.47
2018-04-20T22:38:11.457Z,73.63
2018-04-20T22:40:38.941Z,73.56
2018-04-20T22:43:06.473Z,74.48
2018-04-20T22:45:33.968Z,75.13
2018-04-20T22:48:01.453Z,75.70
2018-04-20T22:50:29.221Z,75.38
2018-04-20T22:52:56.701Z,75.89
2018-04-20T22:55:24.181Z,75.62
2018-04-20T22:57:51.690Z,75.48
2018-04-20T23:00:23.162Z,75.66
2018-04-20T23:02:50.662Z,75.84
2018-04-20T23:05:18.194Z,76.03
2018-04-20T23:07:45.681Z,76.38
2018-04-20T23:10:13.168Z,76.20
2018-04-20T23:12:40.692Z,76.85
2018-04-20T23:15:08.177Z,77.14
2018-04-20T23:17:35.654Z,77.11
2018-04-20T23:20:03.164Z,76.51
2018-04-20T23:22:30.641Z,77.24
2018-04-20T23:24:58.144Z,76.83
2018-04-20T23:27:25.657Z,77.04
2018-04-20T23:29:53.145Z,77.20
2018-04-20T23:32:20.629Z,77.54
2018-04-20T23:34:48.145Z,77.37
2018-04-20T23:37:15.669Z,77.60
2018-04-20T23:39:43.164Z,77.94
2018-04-20T23:42:10.685Z,78.83
2018-04-20T23:44:38.169Z,77.59
2018-04-20T23:47:05.657Z,77.72
2018-04-20T23:49:33.396Z,78.36
2018-04-20T23:52:00.889Z,77.53
2018-04-20T23:54:28.373Z,78.74
2018-04-20T23:56:55.884Z,78.25
2018-04-20T23:59:23.393Z,78.88
